sensor_id;sensor_type;location;lat;lon;timestamp;P1;durP1;ratioP1;P2;durP2;ratioP2
7398;SDS011;3740;50.700;7.184;2024-03-07T00:00:38;16.27;;;14.60;;
7398;SDS011;3740;50.700;7.184;2024-03-07T00:03:25;17.37;;;15.30;;
7398;SDS011;3740;50.700;7.184;2024-03-07T00:06:11;16.30;;;14.60;;
7398;SDS011;3740;50.700;7.184;2024-03-07T00:08:56;16.80;;;15.10;;
7398;SDS011;3740;50.700;7.184;2024-03-07T00:11:42;16.03;;;14.33;;
7398;SDS011;3740;50.700;7.184;2024-03-07T00:14:28;16.47;;;14.77;;
7398;SDS011;3740;50.700;7.184;2024-03-07T00:17:14;16.97;;;15.27;;
7398;SDS011;3740;50.700;7.184;2024-03-07T00:20:00;16.70;;;14.90;;
7398;SDS011;3740;50.700;7.184;2024-03-07T00:22:46;17.30;;;14.90;;
7398;SDS011;3740;50.700;7.184;2024-03-07T00:25:32;16.43;;;14.73;;
7398;SDS011;3740;50.700;7.184;2024-03-07T00:28:18;17.27;;;15.33;;
7398;SDS011;3740;50.700;7.184;2024-03-07T00:31:04;15.97;;;14.27;;
7398;SDS011;3740;50.700;7.184;2024-03-07T00:33:52;16.70;;;14.83;;
7398;SDS011;3740;50.700;7.184;2024-03-07T00:36:38;16.30;;;14.60;;
7398;SDS011;3740;50.700;7.184;2024-03-07T00:39:24;16.20;;;14.47;;
7398;SDS011;3740;50.700;7.184;2024-03-07T00:42:10;16.00;;;14.40;;
7398;SDS011;3740;50.700;7.184;2024-03-07T00:44:57;16.07;;;14.13;;
7398;SDS011;3740;50.700;7.184;2024-03-07T00:47:43;17.37;;;15.57;;
7398;SDS011;3740;50.700;7.184;2024-03-07T00:50:29;15.80;;;14.10;;
7398;SDS011;3740;50.700;7.184;2024-03-07T00:53:16;16.53;;;14.73;;
7398;SDS011;3740;50.700;7.184;2024-03-07T00:56:02;15.90;;;14.20;;
7398;SDS011;3740;50.700;7.184;2024-03-07T00:58:48;16.00;;;14.40;;
7398;SDS011;3740;50.700;7.184;2024-03-07T01:01:34;18.63;;;14.73;;
7398;SDS011;3740;50.700;7.184;2024-03-07T01:04:21;19.40;;;15.63;;
7398;SDS011;3740;50.700;7.184;2024-03-07T01:07:07;16.70;;;15.00;;
7398;SDS011;3740;50.700;7.184;2024-03-07T01:09:53;16.80;;;14.50;;
7398;SDS011;3740;50.700;7.184;2024-03-07T01:12:39;16.93;;;15.23;;
7398;SDS011;3740;50.700;7.184;2024-03-07T01:15:25;16.40;;;14.70;;
7398;SDS011;3740;50.700;7.184;2024-03-07T01:18:11;18.60;;;16.53;;
7398;SDS011;3740;50.700;7.184;2024-03-07T01:20:58;18.23;;;16.27;;
7398;SDS011;3740;50.700;7.184;2024-03-07T01:23:44;17.83;;;15.13;;
7398;SDS011;3740;50.700;7.184;2024-03-07T01:26:30;17.37;;;15.53;;
7398;SDS011;3740;50.700;7.184;2024-03-07T01:29:18;18.63;;;16.63;;
7398;SDS011;3740;50.700;7.184;2024-03-07T01:32:04;17.07;;;15.27;;
7398;SDS011;3740;50.700;7.184;2024-03-07T01:34:50;17.53;;;15.73;;
7398;SDS011;3740;50.700;7.184;2024-03-07T01:37:36;17.53;;;15.60;;
7398;SDS011;3740;50.700;7.184;2024-03-07T01:40:22;18.33;;;16.47;;
7398;SDS011;3740;50.700;7.184;2024-03-07T01:43:08;19.20;;;17.17;;
7398;SDS011;3740;50.700;7.184;2024-03-07T01:45:55;16.97;;;15.17;;
7398;SDS011;3740;50.700;7.184;2024-03-07T01:48:45;19.53;;;16.57;;
7398;SDS011;3740;50.700;7.184;2024-03-07T01:51:31;19.30;;;17.00;;
7398;SDS011;3740;50.700;7.184;2024-03-07T01:54:18;21.43;;;16.80;;
7398;SDS011;3740;50.700;7.184;2024-03-07T01:57:04;20.07;;;17.23;;
7398;SDS011;3740;50.700;7.184;2024-03-07T01:59:51;20.30;;;18.00;;
7398;SDS011;3740;50.700;7.184;2024-03-07T02:02:37;20.70;;;17.47;;
7398;SDS011;3740;50.700;7.184;2024-03-07T02:05:23;18.80;;;16.77;;
7398;SDS011;3740;50.700;7.184;2024-03-07T02:08:10;18.40;;;16.50;;
7398;SDS011;3740;50.700;7.184;2024-03-07T02:10:56;17.90;;;15.90;;
7398;SDS011;3740;50.700;7.184;2024-03-07T02:13:42;18.37;;;16.33;;
7398;SDS011;3740;50.700;7.184;2024-03-07T02:16:28;18.37;;;16.47;;
7398;SDS011;3740;50.700;7.184;2024-03-07T02:19:14;18.23;;;16.30;;
7398;SDS011;3740;50.700;7.184;2024-03-07T02:22:01;18.60;;;16.57;;
7398;SDS011;3740;50.700;7.184;2024-03-07T02:24:47;17.93;;;15.93;;
7398;SDS011;3740;50.700;7.184;2024-03-07T02:27:33;17.83;;;15.93;;
7398;SDS011;3740;50.700;7.184;2024-03-07T02:30:19;18.73;;;16.77;;
7398;SDS011;3740;50.700;7.184;2024-03-07T02:33:04;18.60;;;16.53;;
7398;SDS011;3740;50.700;7.184;2024-03-07T02:35:54;19.10;;;16.50;;
7398;SDS011;3740;50.700;7.184;2024-03-07T02:38:40;18.57;;;16.53;;
7398;SDS011;3740;50.700;7.184;2024-03-07T02:41:26;21.10;;;17.07;;
7398;SDS011;3740;50.700;7.184;2024-03-07T02:44:12;19.00;;;17.00;;
7398;SDS011;3740;50.700;7.184;2024-03-07T02:46:58;18.03;;;16.07;;
7398;SDS011;3740;50.700;7.184;2024-03-07T02:49:44;17.23;;;15.43;;
7398;SDS011;3740;50.700;7.184;2024-03-07T02:52:30;19.97;;;17.00;;
7398;SDS011;3740;50.700;7.184;2024-03-07T02:55:16;18.37;;;16.13;;
7398;SDS011;3740;50.700;7.184;2024-03-07T02:58:02;19.47;;;16.77;;
7398;SDS011;3740;50.700;7.184;2024-03-07T03:00:48;17.60;;;15.80;;
7398;SDS011;3740;50.700;7.184;2024-03-07T03:03:34;18.23;;;16.33;;
7398;SDS011;3740;50.700;7.184;2024-03-07T03:06:20;19.03;;;16.47;;
7398;SDS011;3740;50.700;7.184;2024-03-07T03:09:06;18.90;;;16.90;;
7398;SDS011;3740;50.700;7.184;2024-03-07T03:11:51;17.30;;;15.47;;
7398;SDS011;3740;50.700;7.184;2024-03-07T03:14:37;20.13;;;17.27;;
7398;SDS011;3740;50.700;7.184;2024-03-07T03:17:23;18.70;;;16.73;;
7398;SDS011;3740;50.700;7.184;2024-03-07T03:20:09;21.13;;;17.07;;
7398;SDS011;3740;50.700;7.184;2024-03-07T03:23:09;19.00;;;16.53;;
7398;SDS011;3740;50.700;7.184;2024-03-07T03:25:58;19.37;;;17.30;;
7398;SDS011;3740;50.700;7.184;2024-03-07T03:28:45;21.40;;;18.40;;
7398;SDS011;3740;50.700;7.184;2024-03-07T03:31:30;21.93;;;18.57;;
7398;SDS011;3740;50.700;7.184;2024-03-07T03:34:16;20.93;;;17.40;;
7398;SDS011;3740;50.700;7.184;2024-03-07T03:37:02;20.70;;;18.03;;
7398;SDS011;3740;50.700;7.184;2024-03-07T03:39:48;21.20;;;17.33;;
7398;SDS011;3740;50.700;7.184;2024-03-07T03:42:37;21.00;;;17.60;;
7398;SDS011;3740;50.700;7.184;2024-03-07T03:45:24;20.07;;;17.67;;
7398;SDS011;3740;50.700;7.184;2024-03-07T03:48:10;19.67;;;17.57;;
7398;SDS011;3740;50.700;7.184;2024-03-07T03:50:56;21.80;;;17.97;;
7398;SDS011;3740;50.700;7.184;2024-03-07T03:53:42;20.80;;;18.37;;
7398;SDS011;3740;50.700;7.184;2024-03-07T03:56:28;20.17;;;17.43;;
7398;SDS011;3740;50.700;7.184;2024-03-07T03:59:14;22.53;;;19.23;;
7398;SDS011;3740;50.700;7.184;2024-03-07T04:02:00;23.33;;;19.37;;
7398;SDS011;3740;50.700;7.184;2024-03-07T04:04:46;21.53;;;18.17;;
7398;SDS011;3740;50.700;7.184;2024-03-07T04:07:32;22.07;;;18.37;;
7398;SDS011;3740;50.700;7.184;2024-03-07T04:10:17;20.97;;;18.77;;
7398;SDS011;3740;50.700;7.184;2024-03-07T04:13:03;21.10;;;17.93;;
7398;SDS011;3740;50.700;7.184;2024-03-07T04:15:49;20.47;;;17.47;;
7398;SDS011;3740;50.700;7.184;2024-03-07T04:18:35;19.93;;;17.73;;
7398;SDS011;3740;50.700;7.184;2024-03-07T04:21:21;20.53;;;18.33;;
7398;SDS011;3740;50.700;7.184;2024-03-07T04:24:07;21.00;;;17.63;;
7398;SDS011;3740;50.700;7.184;2024-03-07T04:26:54;20.43;;;17.53;;
7398;SDS011;3740;50.700;7.184;2024-03-07T04:29:40;20.20;;;17.87;;
7398;SDS011;3740;50.700;7.184;2024-03-07T04:32:26;22.90;;;19.03;;
7398;SDS011;3740;50.700;7.184;2024-03-07T04:35:12;22.10;;;18.47;;
7398;SDS011;3740;50.700;7.184;2024-03-07T04:37:58;21.17;;;18.43;;
7398;SDS011;3740;50.700;7.184;2024-03-07T04:40:44;21.33;;;17.60;;
7398;SDS011;3740;50.700;7.184;2024-03-07T04:43:30;20.70;;;18.33;;
7398;SDS011;3740;50.700;7.184;2024-03-07T04:46:16;21.20;;;18.30;;
7398;SDS011;3740;50.700;7.184;2024-03-07T04:49:02;21.17;;;18.90;;
7398;SDS011;3740;50.700;7.184;2024-03-07T04:51:48;21.57;;;19.27;;
7398;SDS011;3740;50.700;7.184;2024-03-07T04:54:36;22.17;;;19.07;;
7398;SDS011;3740;50.700;7.184;2024-03-07T04:57:21;22.70;;;19.80;;
7398;SDS011;3740;50.700;7.184;2024-03-07T05:00:08;21.67;;;19.37;;
7398;SDS011;3740;50.700;7.184;2024-03-07T05:03:04;22.27;;;19.53;;
7398;SDS011;3740;50.700;7.184;2024-03-07T05:05:50;21.20;;;18.90;;
7398;SDS011;3740;50.700;7.184;2024-03-07T05:08:35;22.00;;;18.97;;
7398;SDS011;3740;50.700;7.184;2024-03-07T05:11:21;22.70;;;19.57;;
7398;SDS011;3740;50.700;7.184;2024-03-07T05:14:07;22.83;;;19.97;;
7398;SDS011;3740;50.700;7.184;2024-03-07T05:16:53;22.53;;;20.13;;
7398;SDS011;3740;50.700;7.184;2024-03-07T05:19:51;21.47;;;18.70;;
7398;SDS011;3740;50.700;7.184;2024-03-07T05:22:37;23.57;;;19.50;;
7398;SDS011;3740;50.700;7.184;2024-03-07T05:25:25;22.27;;;18.83;;
7398;SDS011;3740;50.700;7.184;2024-03-07T05:28:11;22.40;;;20.07;;
7398;SDS011;3740;50.700;7.184;2024-03-07T05:30:57;22.40;;;20.00;;
7398;SDS011;3740;50.700;7.184;2024-03-07T05:33:46;23.67;;;20.40;;
7398;SDS011;3740;50.700;7.184;2024-03-07T05:36:12;26.87;;;21.43;;
7398;SDS011;3740;50.700;7.184;2024-03-07T05:38:41;22.53;;;20.17;;
7398;SDS011;3740;50.700;7.184;2024-03-07T05:41:08;24.07;;;21.03;;
7398;SDS011;3740;50.700;7.184;2024-03-07T05:43:35;24.87;;;22.17;;
7398;SDS011;3740;50.700;7.184;2024-03-07T05:46:01;25.40;;;22.00;;
7398;SDS011;3740;50.700;7.184;2024-03-07T05:48:27;25.10;;;22.27;;
7398;SDS011;3740;50.700;7.184;2024-03-07T05:50:53;24.23;;;21.63;;
7398;SDS011;3740;50.700;7.184;2024-03-07T05:53:19;25.83;;;23.00;;
7398;SDS011;3740;50.700;7.184;2024-03-07T05:55:44;24.30;;;21.70;;
7398;SDS011;3740;50.700;7.184;2024-03-07T05:58:10;26.23;;;23.37;;
7398;SDS011;3740;50.700;7.184;2024-03-07T06:00:36;25.13;;;22.33;;
7398;SDS011;3740;50.700;7.184;2024-03-07T06:03:03;26.40;;;23.53;;
7398;SDS011;3740;50.700;7.184;2024-03-07T06:05:30;24.03;;;21.43;;
7398;SDS011;3740;50.700;7.184;2024-03-07T06:07:55;24.43;;;21.73;;
7398;SDS011;3740;50.700;7.184;2024-03-07T06:10:21;23.23;;;20.87;;
7398;SDS011;3740;50.700;7.184;2024-03-07T06:12:51;24.40;;;21.60;;
7398;SDS011;3740;50.700;7.184;2024-03-07T06:15:17;23.70;;;21.13;;
7398;SDS011;3740;50.700;7.184;2024-03-07T06:17:43;24.03;;;21.43;;
7398;SDS011;3740;50.700;7.184;2024-03-07T06:20:11;26.03;;;22.50;;
7398;SDS011;3740;50.700;7.184;2024-03-07T06:22:47;24.07;;;21.47;;
7398;SDS011;3740;50.700;7.184;2024-03-07T06:25:17;22.93;;;20.63;;
7398;SDS011;3740;50.700;7.184;2024-03-07T06:27:58;23.47;;;19.80;;
7398;SDS011;3740;50.700;7.184;2024-03-07T06:30:33;25.43;;;20.90;;
7398;SDS011;3740;50.700;7.184;2024-03-07T06:32:59;21.67;;;18.97;;
7398;SDS011;3740;50.700;7.184;2024-03-07T06:35:24;22.50;;;20.03;;
7398;SDS011;3740;50.700;7.184;2024-03-07T06:37:50;22.73;;;20.23;;
7398;SDS011;3740;50.700;7.184;2024-03-07T06:40:16;22.47;;;20.07;;
7398;SDS011;3740;50.700;7.184;2024-03-07T06:42:46;20.73;;;18.27;;
7398;SDS011;3740;50.700;7.184;2024-03-07T06:45:12;22.40;;;20.10;;
7398;SDS011;3740;50.700;7.184;2024-03-07T06:47:37;26.50;;;23.40;;
7398;SDS011;3740;50.700;7.184;2024-03-07T06:50:03;24.90;;;22.30;;
7398;SDS011;3740;50.700;7.184;2024-03-07T06:52:29;25.00;;;20.80;;
7398;SDS011;3740;50.700;7.184;2024-03-07T06:54:54;24.23;;;21.63;;
7398;SDS011;3740;50.700;7.184;2024-03-07T06:57:21;23.93;;;21.33;;
7398;SDS011;3740;50.700;7.184;2024-03-07T06:59:47;23.07;;;20.57;;
7398;SDS011;3740;50.700;7.184;2024-03-07T07:02:12;26.60;;;22.10;;
7398;SDS011;3740;50.700;7.184;2024-03-07T07:04:38;24.00;;;21.40;;
7398;SDS011;3740;50.700;7.184;2024-03-07T07:07:08;24.63;;;21.93;;
7398;SDS011;3740;50.700;7.184;2024-03-07T07:09:35;24.87;;;22.23;;
7398;SDS011;3740;50.700;7.184;2024-03-07T07:12:01;26.43;;;22.30;;
7398;SDS011;3740;50.700;7.184;2024-03-07T07:14:30;25.03;;;22.33;;
7398;SDS011;3740;50.700;7.184;2024-03-07T07:16:55;26.57;;;23.57;;
7398;SDS011;3740;50.700;7.184;2024-03-07T07:19:21;25.80;;;22.97;;
7398;SDS011;3740;50.700;7.184;2024-03-07T07:21:47;26.27;;;22.50;;
7398;SDS011;3740;50.700;7.184;2024-03-07T07:24:18;24.00;;;21.37;;
7398;SDS011;3740;50.700;7.184;2024-03-07T07:26:48;22.97;;;20.57;;
7398;SDS011;3740;50.700;7.184;2024-03-07T07:29:15;23.57;;;21.10;;
7398;SDS011;3740;50.700;7.184;2024-03-07T07:31:41;23.97;;;20.57;;
7398;SDS011;3740;50.700;7.184;2024-03-07T07:34:06;23.53;;;20.17;;
7398;SDS011;3740;50.700;7.184;2024-03-07T07:36:32;22.80;;;19.77;;
7398;SDS011;3740;50.700;7.184;2024-03-07T07:38:57;22.33;;;19.50;;
7398;SDS011;3740;50.700;7.184;2024-03-07T07:41:23;24.03;;;20.90;;
7398;SDS011;3740;50.700;7.184;2024-03-07T07:43:48;23.80;;;21.27;;
7398;SDS011;3740;50.700;7.184;2024-03-07T07:46:16;25.17;;;22.30;;
7398;SDS011;3740;50.700;7.184;2024-03-07T07:48:42;27.50;;;23.57;;
7398;SDS011;3740;50.700;7.184;2024-03-07T07:51:07;25.27;;;22.57;;
7398;SDS011;3740;50.700;7.184;2024-03-07T07:53:34;24.63;;;22.03;;
7398;SDS011;3740;50.700;7.184;2024-03-07T07:55:59;24.80;;;22.27;;
7398;SDS011;3740;50.700;7.184;2024-03-07T07:58:25;24.03;;;21.53;;
7398;SDS011;3740;50.700;7.184;2024-03-07T08:00:50;23.80;;;21.33;;
7398;SDS011;3740;50.700;7.184;2024-03-07T08:03:16;22.97;;;20.60;;
7398;SDS011;3740;50.700;7.184;2024-03-07T08:05:43;23.23;;;20.87;;
7398;SDS011;3740;50.700;7.184;2024-03-07T08:08:10;23.70;;;21.37;;
7398;SDS011;3740;50.700;7.184;2024-03-07T08:10:43;23.03;;;20.63;;
7398;SDS011;3740;50.700;7.184;2024-03-07T08:13:10;22.80;;;20.43;;
7398;SDS011;3740;50.700;7.184;2024-03-07T08:15:38;22.47;;;20.17;;
7398;SDS011;3740;50.700;7.184;2024-03-07T08:18:04;22.60;;;20.40;;
7398;SDS011;3740;50.700;7.184;2024-03-07T08:20:37;21.77;;;19.57;;
7398;SDS011;3740;50.700;7.184;2024-03-07T08:23:03;23.57;;;21.13;;
7398;SDS011;3740;50.700;7.184;2024-03-07T08:25:29;23.70;;;21.20;;
7398;SDS011;3740;50.700;7.184;2024-03-07T08:27:55;21.60;;;19.50;;
7398;SDS011;3740;50.700;7.184;2024-03-07T08:30:23;23.70;;;21.30;;
7398;SDS011;3740;50.700;7.184;2024-03-07T08:32:53;22.87;;;20.57;;
7398;SDS011;3740;50.700;7.184;2024-03-07T08:35:20;20.70;;;18.63;;
7398;SDS011;3740;50.700;7.184;2024-03-07T08:37:47;20.77;;;18.63;;
7398;SDS011;3740;50.700;7.184;2024-03-07T08:40:17;23.03;;;20.73;;
7398;SDS011;3740;50.700;7.184;2024-03-07T08:42:44;21.83;;;19.63;;
7398;SDS011;3740;50.700;7.184;2024-03-07T08:45:11;21.43;;;19.17;;
7398;SDS011;3740;50.700;7.184;2024-03-07T08:47:42;21.27;;;19.17;;
7398;SDS011;3740;50.700;7.184;2024-03-07T08:50:08;21.57;;;19.27;;
7398;SDS011;3740;50.700;7.184;2024-03-07T08:52:35;20.70;;;18.70;;
7398;SDS011;3740;50.700;7.184;2024-03-07T08:55:05;20.77;;;18.67;;
7398;SDS011;3740;50.700;7.184;2024-03-07T08:57:34;22.03;;;18.40;;
7398;SDS011;3740;50.700;7.184;2024-03-07T09:00:01;22.33;;;19.87;;
7398;SDS011;3740;50.700;7.184;2024-03-07T09:02:33;21.90;;;19.77;;
7398;SDS011;3740;50.700;7.184;2024-03-07T09:05:00;21.10;;;18.93;;
7398;SDS011;3740;50.700;7.184;2024-03-07T09:07:26;22.20;;;19.93;;
7398;SDS011;3740;50.700;7.184;2024-03-07T09:09:51;22.93;;;20.63;;
7398;SDS011;3740;50.700;7.184;2024-03-07T09:12:17;21.47;;;19.17;;
7398;SDS011;3740;50.700;7.184;2024-03-07T09:14:45;22.43;;;20.13;;
7398;SDS011;3740;50.700;7.184;2024-03-07T09:17:10;20.43;;;18.43;;
7398;SDS011;3740;50.700;7.184;2024-03-07T09:19:37;21.27;;;18.93;;
7398;SDS011;3740;50.700;7.184;2024-03-07T09:22:02;20.13;;;18.03;;
7398;SDS011;3740;50.700;7.184;2024-03-07T09:24:29;20.33;;;18.33;;
7398;SDS011;3740;50.700;7.184;2024-03-07T09:26:55;20.67;;;18.27;;
7398;SDS011;3740;50.700;7.184;2024-03-07T09:29:21;19.93;;;18.03;;
7398;SDS011;3740;50.700;7.184;2024-03-07T09:31:50;19.80;;;17.80;;
7398;SDS011;3740;50.700;7.184;2024-03-07T09:34:19;19.93;;;17.93;;
7398;SDS011;3740;50.700;7.184;2024-03-07T09:36:46;20.97;;;18.77;;
7398;SDS011;3740;50.700;7.184;2024-03-07T09:39:12;20.47;;;18.37;;
7398;SDS011;3740;50.700;7.184;2024-03-07T09:41:38;18.97;;;17.07;;
7398;SDS011;3740;50.700;7.184;2024-03-07T09:44:07;18.57;;;16.67;;
7398;SDS011;3740;50.700;7.184;2024-03-07T09:46:36;19.10;;;17.07;;
7398;SDS011;3740;50.700;7.184;2024-03-07T09:49:02;17.63;;;15.93;;
7398;SDS011;3740;50.700;7.184;2024-03-07T09:51:30;18.70;;;16.80;;
7398;SDS011;3740;50.700;7.184;2024-03-07T09:53:58;19.17;;;17.27;;
7398;SDS011;3740;50.700;7.184;2024-03-07T09:56:24;17.67;;;15.77;;
7398;SDS011;3740;50.700;7.184;2024-03-07T09:58:51;18.37;;;16.37;;
7398;SDS011;3740;50.700;7.184;2024-03-07T10:01:19;17.97;;;16.13;;
7398;SDS011;3740;50.700;7.184;2024-03-07T10:03:49;19.13;;;17.23;;
7398;SDS011;3740;50.700;7.184;2024-03-07T10:06:18;19.23;;;17.23;;
7398;SDS011;3740;50.700;7.184;2024-03-07T10:08:46;20.63;;;18.60;;
7398;SDS011;3740;50.700;7.184;2024-03-07T10:11:12;19.30;;;17.40;;
7398;SDS011;3740;50.700;7.184;2024-03-07T10:13:39;18.30;;;16.50;;
7398;SDS011;3740;50.700;7.184;2024-03-07T10:16:06;19.13;;;17.00;;
7398;SDS011;3740;50.700;7.184;2024-03-07T10:18:33;16.47;;;14.77;;
7398;SDS011;3740;50.700;7.184;2024-03-07T10:21:07;18.30;;;16.43;;
7398;SDS011;3740;50.700;7.184;2024-03-07T10:23:32;18.30;;;16.40;;
7398;SDS011;3740;50.700;7.184;2024-03-07T10:26:01;18.07;;;16.27;;
7398;SDS011;3740;50.700;7.184;2024-03-07T10:28:29;18.07;;;16.37;;
7398;SDS011;3740;50.700;7.184;2024-03-07T10:30:56;18.27;;;16.47;;
7398;SDS011;3740;50.700;7.184;2024-03-07T10:33:25;17.57;;;15.67;;
7398;SDS011;3740;50.700;7.184;2024-03-07T10:35:52;17.73;;;15.90;;
7398;SDS011;3740;50.700;7.184;2024-03-07T10:38:18;15.85;;;14.23;;
7398;SDS011;3740;50.700;7.184;2024-03-07T10:40:45;16.98;;;15.30;;
7398;SDS011;3740;50.700;7.184;2024-03-07T10:43:12;13.82;;;12.45;;
7398;SDS011;3740;50.700;7.184;2024-03-07T10:45:49;13.35;;;12.07;;
7398;SDS011;3740;50.700;7.184;2024-03-07T10:48:17;13.75;;;12.55;;
7398;SDS011;3740;50.700;7.184;2024-03-07T10:53:32;13.88;;;12.68;;
7398;SDS011;3740;50.700;7.184;2024-03-07T10:59:17;12.88;;;11.73;;
7398;SDS011;3740;50.700;7.184;2024-03-07T11:01:49;12.70;;;11.50;;
7398;SDS011;3740;50.700;7.184;2024-03-07T11:04:24;12.77;;;11.70;;
7398;SDS011;3740;50.700;7.184;2024-03-07T11:06:50;14.02;;;12.82;;
7398;SDS011;3740;50.700;7.184;2024-03-07T11:09:15;13.10;;;11.90;;
7398;SDS011;3740;50.700;7.184;2024-03-07T11:11:48;13.07;;;11.98;;
7398;SDS011;3740;50.700;7.184;2024-03-07T11:14:14;13.32;;;12.02;;
7398;SDS011;3740;50.700;7.184;2024-03-07T11:16:41;13.75;;;12.57;;
7398;SDS011;3740;50.700;7.184;2024-03-07T11:21:49;13.10;;;11.90;;
7398;SDS011;3740;50.700;7.184;2024-03-07T11:24:25;12.30;;;11.20;;
7398;SDS011;3740;50.700;7.184;2024-03-07T11:26:53;11.77;;;10.68;;
7398;SDS011;3740;50.700;7.184;2024-03-07T11:29:42;12.15;;;11.05;;
7398;SDS011;3740;50.700;7.184;2024-03-07T11:32:09;13.15;;;11.75;;
7398;SDS011;3740;50.700;7.184;2024-03-07T11:34:39;13.68;;;12.48;;
7398;SDS011;3740;50.700;7.184;2024-03-07T11:37:07;12.95;;;11.68;;
7398;SDS011;3740;50.700;7.184;2024-03-07T11:39:42;12.07;;;10.98;;
7398;SDS011;3740;50.700;7.184;2024-03-07T11:42:24;11.73;;;10.73;;
7398;SDS011;3740;50.700;7.184;2024-03-07T11:44:51;12.73;;;11.45;;
7398;SDS011;3740;50.700;7.184;2024-03-07T11:47:17;12.82;;;11.63;;
7398;SDS011;3740;50.700;7.184;2024-03-07T11:49:43;12.57;;;11.25;;
7398;SDS011;3740;50.700;7.184;2024-03-07T11:52:13;11.27;;;10.23;;
7398;SDS011;3740;50.700;7.184;2024-03-07T11:54:41;11.45;;;10.45;;
7398;SDS011;3740;50.700;7.184;2024-03-07T11:57:20;10.20;;;9.30;;
7398;SDS011;3740;50.700;7.184;2024-03-07T11:59:51;10.05;;;9.07;;
7398;SDS011;3740;50.700;7.184;2024-03-07T12:02:18;9.95;;;8.95;;
7398;SDS011;3740;50.700;7.184;2024-03-07T12:04:49;9.85;;;8.95;;
7398;SDS011;3740;50.700;7.184;2024-03-07T12:07:15;9.88;;;8.98;;
7398;SDS011;3740;50.700;7.184;2024-03-07T12:09:43;11.40;;;10.30;;
7398;SDS011;3740;50.700;7.184;2024-03-07T12:12:15;10.10;;;9.20;;
7398;SDS011;3740;50.700;7.184;2024-03-07T12:14:46;10.70;;;9.80;;
7398;SDS011;3740;50.700;7.184;2024-03-07T12:17:12;10.45;;;9.30;;
7398;SDS011;3740;50.700;7.184;2024-03-07T12:19:41;9.77;;;8.85;;
7398;SDS011;3740;50.700;7.184;2024-03-07T12:22:11;9.13;;;8.32;;
7398;SDS011;3740;50.700;7.184;2024-03-07T12:24:47;9.18;;;8.43;;
7398;SDS011;3740;50.700;7.184;2024-03-07T12:27:24;10.07;;;9.07;;
7398;SDS011;3740;50.700;7.184;2024-03-07T12:29:49;9.07;;;8.30;;
7398;SDS011;3740;50.700;7.184;2024-03-07T12:32:17;9.23;;;8.43;;
7398;SDS011;3740;50.700;7.184;2024-03-07T12:34:43;10.13;;;9.25;;
7398;SDS011;3740;50.700;7.184;2024-03-07T12:37:14;9.40;;;8.63;;
7398;SDS011;3740;50.700;7.184;2024-03-07T12:39:41;8.93;;;8.15;;
7398;SDS011;3740;50.700;7.184;2024-03-07T12:42:12;9.63;;;8.73;;
7398;SDS011;3740;50.700;7.184;2024-03-07T12:44:40;9.52;;;8.63;;
7398;SDS011;3740;50.700;7.184;2024-03-07T12:47:15;8.93;;;8.15;;
7398;SDS011;3740;50.700;7.184;2024-03-07T12:49:41;9.98;;;9.07;;
7398;SDS011;3740;50.700;7.184;2024-03-07T12:52:08;10.32;;;9.32;;
7398;SDS011;3740;50.700;7.184;2024-03-07T12:54:34;10.18;;;9.18;;
7398;SDS011;3740;50.700;7.184;2024-03-07T12:57:02;9.57;;;8.68;;
7398;SDS011;3740;50.700;7.184;2024-03-07T12:59:30;9.30;;;8.40;;
7398;SDS011;3740;50.700;7.184;2024-03-07T13:01:56;10.32;;;9.32;;
7398;SDS011;3740;50.700;7.184;2024-03-07T13:04:22;10.18;;;9.23;;
7398;SDS011;3740;50.700;7.184;2024-03-07T13:06:50;9.95;;;9.02;;
7398;SDS011;3740;50.700;7.184;2024-03-07T13:09:16;10.18;;;9.18;;
7398;SDS011;3740;50.700;7.184;2024-03-07T13:11:51;10.18;;;9.27;;
7398;SDS011;3740;50.700;7.184;2024-03-07T13:14:18;10.32;;;9.32;;
7398;SDS011;3740;50.700;7.184;2024-03-07T13:16:44;9.60;;;8.75;;
7398;SDS011;3740;50.700;7.184;2024-03-07T13:19:10;10.85;;;9.85;;
7398;SDS011;3740;50.700;7.184;2024-03-07T13:21:37;13.33;;;11.60;;
7398;SDS011;3740;50.700;7.184;2024-03-07T13:24:04;15.50;;;12.20;;
7398;SDS011;3740;50.700;7.184;2024-03-07T13:26:30;12.70;;;11.47;;
7398;SDS011;3740;50.700;7.184;2024-03-07T13:28:57;12.67;;;11.43;;
7398;SDS011;3740;50.700;7.184;2024-03-07T13:31:26;12.10;;;11.00;;
7398;SDS011;3740;50.700;7.184;2024-03-07T13:33:53;11.90;;;10.75;;
7398;SDS011;3740;50.700;7.184;2024-03-07T13:36:20;14.57;;;9.75;;
7398;SDS011;3740;50.700;7.184;2024-03-07T13:38:50;29.85;;;13.70;;
7398;SDS011;3740;50.700;7.184;2024-03-07T13:41:18;11.32;;;10.20;;
7398;SDS011;3740;50.700;7.184;2024-03-07T13:47:07;11.88;;;10.68;;
7398;SDS011;3740;50.700;7.184;2024-03-07T13:49:32;12.10;;;10.90;;
7398;SDS011;3740;50.700;7.184;2024-03-07T13:51:59;11.17;;;10.07;;
7398;SDS011;3740;50.700;7.184;2024-03-07T13:54:35;11.07;;;9.93;;
7398;SDS011;3740;50.700;7.184;2024-03-07T14:02:59;12.40;;;11.27;;
7398;SDS011;3740;50.700;7.184;2024-03-07T14:05:58;10.73;;;9.73;;
7398;SDS011;3740;50.700;7.184;2024-03-07T14:11:36;11.47;;;10.37;;
7398;SDS011;3740;50.700;7.184;2024-03-07T14:14:32;10.97;;;9.87;;
7398;SDS011;3740;50.700;7.184;2024-03-07T14:17:27;11.20;;;10.10;;
7398;SDS011;3740;50.700;7.184;2024-03-07T14:28:43;12.50;;;11.30;;
7398;SDS011;3740;50.700;7.184;2024-03-07T14:31:29;13.17;;;11.87;;
7398;SDS011;3740;50.700;7.184;2024-03-07T14:34:06;13.80;;;12.30;;
7398;SDS011;3740;50.700;7.184;2024-03-07T14:36:53;13.37;;;12.17;;
7398;SDS011;3740;50.700;7.184;2024-03-07T14:39:27;12.87;;;11.57;;
7398;SDS011;3740;50.700;7.184;2024-03-07T14:44:23;13.90;;;12.47;;
7398;SDS011;3740;50.700;7.184;2024-03-07T14:46:52;13.60;;;12.30;;
7398;SDS011;3740;50.700;7.184;2024-03-07T14:49:22;13.30;;;12.00;;
7398;SDS011;3740;50.700;7.184;2024-03-07T14:51:48;13.90;;;12.43;;
7398;SDS011;3740;50.700;7.184;2024-03-07T14:54:15;13.33;;;12.03;;
7398;SDS011;3740;50.700;7.184;2024-03-07T14:56:41;14.20;;;12.87;;
7398;SDS011;3740;50.700;7.184;2024-03-07T14:59:07;12.77;;;11.67;;
7398;SDS011;3740;50.700;7.184;2024-03-07T15:01:32;12.97;;;11.67;;
7398;SDS011;3740;50.700;7.184;2024-03-07T15:04:01;13.53;;;12.23;;
7398;SDS011;3740;50.700;7.184;2024-03-07T15:06:28;12.93;;;11.70;;
7398;SDS011;3740;50.700;7.184;2024-03-07T15:08:56;13.23;;;12.03;;
7398;SDS011;3740;50.700;7.184;2024-03-07T15:13:53;12.87;;;11.67;;
7398;SDS011;3740;50.700;7.184;2024-03-07T15:16:19;12.13;;;10.90;;
7398;SDS011;3740;50.700;7.184;2024-03-07T15:18:45;12.37;;;11.07;;
7398;SDS011;3740;50.700;7.184;2024-03-07T15:21:11;12.73;;;11.43;;
7398;SDS011;3740;50.700;7.184;2024-03-07T15:23:40;12.63;;;11.33;;
7398;SDS011;3740;50.700;7.184;2024-03-07T15:26:07;12.53;;;11.33;;
7398;SDS011;3740;50.700;7.184;2024-03-07T15:28:33;12.20;;;10.97;;
7398;SDS011;3740;50.700;7.184;2024-03-07T15:31:00;12.20;;;11.07;;
7398;SDS011;3740;50.700;7.184;2024-03-07T15:33:31;13.00;;;11.73;;
7398;SDS011;3740;50.700;7.184;2024-03-07T15:35:57;12.73;;;11.53;;
7398;SDS011;3740;50.700;7.184;2024-03-07T15:38:22;12.60;;;11.50;;
7398;SDS011;3740;50.700;7.184;2024-03-07T15:40:48;12.27;;;11.07;;
7398;SDS011;3740;50.700;7.184;2024-03-07T15:43:15;13.00;;;11.80;;
7398;SDS011;3740;50.700;7.184;2024-03-07T15:45:40;12.20;;;11.00;;
7398;SDS011;3740;50.700;7.184;2024-03-07T15:48:06;12.33;;;11.17;;
7398;SDS011;3740;50.700;7.184;2024-03-07T15:50:35;11.83;;;10.70;;
7398;SDS011;3740;50.700;7.184;2024-03-07T15:53:02;12.70;;;11.37;;
7398;SDS011;3740;50.700;7.184;2024-03-07T15:55:31;11.87;;;10.67;;
7398;SDS011;3740;50.700;7.184;2024-03-07T15:57:59;12.27;;;11.07;;
7398;SDS011;3740;50.700;7.184;2024-03-07T16:00:29;12.23;;;11.13;;
7398;SDS011;3740;50.700;7.184;2024-03-07T16:02:56;12.37;;;11.17;;
7398;SDS011;3740;50.700;7.184;2024-03-07T16:05:30;12.00;;;10.90;;
7398;SDS011;3740;50.700;7.184;2024-03-07T16:07:58;11.83;;;10.73;;